createdAt,value
2017-12-16T00:01:25.076Z,8.10
2017-12-16T00:03:52.510Z,8.50
2017-12-16T00:06:19.941Z,9.67
2017-12-16T00:08:47.372Z,9.07
2017-12-16T00:11:14.809Z,8.67
2017-12-16T00:13:42.247Z,8.80
2017-12-16T00:16:09.681Z,11.10
2017-12-16T00:18:37.879Z,9.23
2017-12-16T00:21:05.309Z,9.70
2017-12-16T00:23:33.509Z,9.23
2017-12-16T00:26:00.945Z,9.60
2017-12-16T00:28:29.137Z,9.10
2017-12-16T00:30:56.564Z,9.97
2017-12-16T00:33:23.996Z,10.70
2017-12-16T00:35:51.446Z,10.47
2017-12-16T00:38:18.870Z,10.20
2017-12-16T00:40:46.296Z,10.70
2017-12-16T00:43:14.537Z,9.93
2017-12-16T00:45:42.027Z,10.27
2017-12-16T00:48:09.456Z,10.43
2017-12-16T00:50:36.883Z,10.67
2017-12-16T00:53:04.312Z,10.33
2017-12-16T00:55:32.526Z,9.43
2017-12-16T00:57:59.960Z,10.90
2017-12-16T01:00:27.401Z,10.93
2017-12-16T01:02:55.612Z,11.20
2017-12-16T01:05:23.055Z,10.60
2017-12-16T01:07:50.495Z,10.63
2017-12-16T01:10:18.680Z,9.70
2017-12-16T01:12:46.113Z,10.83
2017-12-16T01:15:14.312Z,10.80
2017-12-16T01:17:41.749Z,10.73
2017-12-16T01:20:09.949Z,10.20
2017-12-16T01:22:37.423Z,10.17
2017-12-16T01:25:04.852Z,9.83
2017-12-16T01:27:32.285Z,12.00
2017-12-16T01:29:59.731Z,10.13
2017-12-16T01:32:27.156Z,10.40
2017-12-16T01:35:06.601Z,11.03
2017-12-16T01:40:33.574Z,9.97
2017-12-16T01:43:01.006Z,11.30
2017-12-16T01:45:28.445Z,10.17
2017-12-16T01:47:55.877Z,9.93
2017-12-16T01:50:24.079Z,11.27
2017-12-16T01:52:51.504Z,11.57
2017-12-16T01:55:18.969Z,10.90
2017-12-16T01:57:47.164Z,10.40
2017-12-16T02:00:14.593Z,10.40
2017-12-16T02:02:42.042Z,11.47
2017-12-16T02:05:09.474Z,11.37
2017-12-16T02:07:36.910Z,10.93
2017-12-16T02:10:04.352Z,10.33
2017-12-16T02:12:31.780Z,9.80
2017-12-16T02:14:59.985Z,11.37
2017-12-16T02:17:27.412Z,13.10
2017-12-16T02:19:55.612Z,12.60
2017-12-16T02:22:23.060Z,12.67
2017-12-16T02:24:50.500Z,13.70
2017-12-16T02:27:17.960Z,12.70
2017-12-16T02:29:46.160Z,12.87
2017-12-16T02:32:13.580Z,11.97
2017-12-16T02:34:41.012Z,13.57
2017-12-16T02:37:08.465Z,12.57
2017-12-16T02:39:36.669Z,12.13
2017-12-16T02:42:04.105Z,12.87
2017-12-16T02:44:31.534Z,12.10
2017-12-16T02:47:03.972Z,14.30
2017-12-16T02:49:32.237Z,14.20
2017-12-16T02:51:59.675Z,13.27
2017-12-16T02:54:27.116Z,12.27
2017-12-16T02:56:54.595Z,13.93
2017-12-16T02:59:22.033Z,13.13
2017-12-16T03:01:49.460Z,13.37
2017-12-16T03:04:16.900Z,12.67
2017-12-16T03:06:44.323Z,13.00
2017-12-16T03:09:11.756Z,14.47
2017-12-16T03:11:39.192Z,13.63
2017-12-16T03:14:06.625Z,12.93
2017-12-16T03:16:34.828Z,11.97
2017-12-16T03:19:02.272Z,14.20
2017-12-16T03:21:29.696Z,10.50
2017-12-16T03:23:57.165Z,13.87
2017-12-16T03:26:25.364Z,12.83
2017-12-16T03:28:52.791Z,12.50
2017-12-16T03:31:20.989Z,11.97
2017-12-16T03:33:48.432Z,13.10
2017-12-16T03:36:16.638Z,13.67
2017-12-16T03:38:44.069Z,12.90
2017-12-16T03:41:12.268Z,14.23
2017-12-16T03:43:39.699Z,13.90
2017-12-16T03:46:07.901Z,14.83
2017-12-16T03:48:35.327Z,13.90
2017-12-16T03:51:03.520Z,14.40
2017-12-16T03:53:30.952Z,15.57
2017-12-16T03:55:59.163Z,15.70
2017-12-16T03:58:26.594Z,15.20
2017-12-16T04:00:54.037Z,14.27
2017-12-16T04:03:22.240Z,15.93
2017-12-16T04:05:49.677Z,15.07
2017-12-16T04:08:17.111Z,14.97
2017-12-16T04:10:44.575Z,15.03
2017-12-16T04:13:12.792Z,14.03
2017-12-16T04:15:40.262Z,13.87
2017-12-16T04:18:07.700Z,13.80
2017-12-16T04:20:35.136Z,15.30
2017-12-16T04:23:03.331Z,14.77
2017-12-16T04:25:30.776Z,15.63
2017-12-16T04:27:58.207Z,14.17
2017-12-16T04:30:25.645Z,14.90
2017-12-16T04:32:53.089Z,15.50
2017-12-16T04:35:24.264Z,15.70
2017-12-16T04:37:51.696Z,15.13
2017-12-16T04:40:19.130Z,15.00
2017-12-16T04:42:46.571Z,15.73
2017-12-16T04:45:14.005Z,15.70
2017-12-16T04:47:42.206Z,16.07
2017-12-16T04:50:09.632Z,12.97
2017-12-16T04:52:37.829Z,14.50
2017-12-16T04:55:05.264Z,13.93
2017-12-16T04:57:32.701Z,13.50
2017-12-16T05:00:00.137Z,14.10
2017-12-16T05:02:27.576Z,12.90
2017-12-16T05:04:55.007Z,10.47
2017-12-16T05:07:23.208Z,9.80
2017-12-16T05:09:50.649Z,9.70
2017-12-16T05:12:18.075Z,12.27
2017-12-16T05:14:47.280Z,12.37
2017-12-16T05:17:15.481Z,10.00
2017-12-16T05:19:42.917Z,9.80
2017-12-16T05:22:11.107Z,9.00
2017-12-16T05:24:38.540Z,9.23
2017-12-16T05:27:06.752Z,11.30
2017-12-16T05:29:34.183Z,9.70
2017-12-16T05:32:01.620Z,11.30
2017-12-16T05:34:29.055Z,10.27
2017-12-16T05:36:56.497Z,10.40
2017-12-16T05:39:23.942Z,11.13
2017-12-16T05:41:51.376Z,12.53
2017-12-16T05:44:18.804Z,11.40
2017-12-16T05:46:46.267Z,11.23
2017-12-16T05:49:13.688Z,12.40
2017-12-16T05:51:41.111Z,11.70
2017-12-16T05:54:08.769Z,12.50
2017-12-16T05:56:36.196Z,10.83
2017-12-16T05:59:03.683Z,13.30
2017-12-16T06:01:31.111Z,11.23
2017-12-16T06:03:58.539Z,11.47
2017-12-16T06:06:25.984Z,10.97
2017-12-16T06:08:54.194Z,12.90
2017-12-16T06:11:21.632Z,12.37
2017-12-16T06:13:49.056Z,13.30
2017-12-16T06:16:16.505Z,12.53
2017-12-16T06:18:43.931Z,12.07
2017-12-16T06:21:12.137Z,12.53
2017-12-16T06:23:39.576Z,12.07
2017-12-16T06:26:07.012Z,12.37
2017-12-16T06:28:34.445Z,13.97
2017-12-16T06:31:01.892Z,12.30
2017-12-16T06:33:29.325Z,12.03
2017-12-16T06:35:56.759Z,13.20
2017-12-16T06:38:24.968Z,12.77
2017-12-16T06:40:52.404Z,14.40
2017-12-16T06:43:19.833Z,14.93
2017-12-16T06:45:47.280Z,16.17
2017-12-16T06:48:14.708Z,14.83
2017-12-16T06:50:50.167Z,15.20
2017-12-16T06:53:17.613Z,14.60
2017-12-16T06:55:45.824Z,13.80
2017-12-16T06:58:13.253Z,13.97
2017-12-16T07:00:40.687Z,16.10
2017-12-16T07:03:08.120Z,15.10
2017-12-16T07:05:35.555Z,13.13
2017-12-16T07:08:03.762Z,14.10
2017-12-16T07:10:31.189Z,14.20
2017-12-16T07:12:59.380Z,15.03
2017-12-16T07:15:26.808Z,15.50
2017-12-16T07:17:54.243Z,15.27
2017-12-16T07:20:21.686Z,16.30
2017-12-16T07:22:49.129Z,15.40
2017-12-16T07:25:22.149Z,14.60
2017-12-16T07:27:49.907Z,15.60
2017-12-16T07:30:17.349Z,14.17
2017-12-16T07:32:44.779Z,14.77
2017-12-16T07:35:12.211Z,16.27
2017-12-16T07:37:40.416Z,16.67
2017-12-16T07:40:07.850Z,16.53
2017-12-16T07:42:38.153Z,16.67
2017-12-16T07:45:05.612Z,16.10
2017-12-16T07:47:33.081Z,17.17
2017-12-16T07:50:00.587Z,15.20
2017-12-16T07:52:28.025Z,15.80
2017-12-16T07:54:55.460Z,14.13
2017-12-16T07:57:23.652Z,18.07
2017-12-16T07:59:51.113Z,16.20
2017-12-16T08:02:18.541Z,15.43
2017-12-16T08:04:46.746Z,18.10
2017-12-16T08:07:15.196Z,19.80
2017-12-16T08:09:43.396Z,18.97
2017-12-16T08:12:10.824Z,17.57
2017-12-16T08:14:38.259Z,17.23
2017-12-16T08:17:05.727Z,20.33
2017-12-16T08:19:33.164Z,18.03
2017-12-16T08:22:00.593Z,17.27
2017-12-16T08:24:28.064Z,18.83
2017-12-16T08:26:55.489Z,17.77
2017-12-16T08:29:23.687Z,15.67
2017-12-16T08:31:51.121Z,17.63
2017-12-16T08:34:18.547Z,15.47
2017-12-16T08:36:45.986Z,18.47
2017-12-16T08:39:13.421Z,17.13
2017-12-16T08:41:40.856Z,17.60
2017-12-16T08:44:09.303Z,18.50
2017-12-16T08:46:36.735Z,18.73
2017-12-16T08:49:04.167Z,19.00
2017-12-16T08:51:31.608Z,17.10
2017-12-16T08:53:59.032Z,18.77
2017-12-16T08:56:27.235Z,20.20
2017-12-16T08:58:54.660Z,20.23
2017-12-16T09:01:22.102Z,17.03
2017-12-16T09:03:49.697Z,19.40
2017-12-16T09:06:17.976Z,20.70
2017-12-16T09:08:53.136Z,21.20
2017-12-16T09:11:20.716Z,20.37
2017-12-16T09:13:48.162Z,20.03
2017-12-16T09:16:15.588Z,20.20
2017-12-16T09:18:43.796Z,22.40
2017-12-16T09:21:11.222Z,20.30
2017-12-16T09:23:39.423Z,20.50
2017-12-16T09:26:06.852Z,21.40
2017-12-16T09:28:34.289Z,21.03
2017-12-16T09:31:01.719Z,18.70
2017-12-16T09:33:29.156Z,22.80
2017-12-16T09:35:57.588Z,22.10
2017-12-16T09:38:25.792Z,21.80
2017-12-16T09:40:53.216Z,20.73
2017-12-16T09:43:21.436Z,20.03
2017-12-16T09:45:48.870Z,22.27
2017-12-16T09:48:16.300Z,20.50
2017-12-16T09:50:43.758Z,19.37
2017-12-16T09:53:11.216Z,20.80
2017-12-16T09:55:38.671Z,23.10
2017-12-16T09:58:06.104Z,21.67
2017-12-16T10:00:33.558Z,19.73
2017-12-16T10:03:00.980Z,20.53
2017-12-16T10:05:28.429Z,19.30
2017-12-16T10:07:55.860Z,22.13
2017-12-16T10:10:23.294Z,21.70
2017-12-16T10:12:50.738Z,21.73
2017-12-16T10:15:18.176Z,22.57
2017-12-16T10:17:45.610Z,20.93
2017-12-16T10:20:13.042Z,20.83
2017-12-16T10:22:40.497Z,22.50
2017-12-16T10:25:07.933Z,22.80
2017-12-16T10:27:37.326Z,22.83
2017-12-16T10:30:04.746Z,21.97
2017-12-16T10:32:33.196Z,22.73
2017-12-16T10:35:00.646Z,20.43
2017-12-16T10:37:28.064Z,21.73
2017-12-16T10:39:55.541Z,18.97
2017-12-16T10:42:22.970Z,20.83
2017-12-16T10:44:50.406Z,19.40
2017-12-16T10:47:17.937Z,19.73
2017-12-16T10:49:45.377Z,18.70
2017-12-16T10:52:12.816Z,19.60
2017-12-16T10:54:40.261Z,18.97
2017-12-16T10:57:09.729Z,18.27
2017-12-16T10:59:37.948Z,16.37
2017-12-16T11:02:10.067Z,16.50
2017-12-16T11:04:38.261Z,16.63
2017-12-16T11:07:05.700Z,16.73
2017-12-16T11:09:34.995Z,15.20
2017-12-16T11:12:02.464Z,14.80
2017-12-16T11:14:30.670Z,14.30
2017-12-16T11:16:58.110Z,14.60
2017-12-16T11:19:25.541Z,16.73
2017-12-16T11:21:52.977Z,16.47
2017-12-16T11:24:20.407Z,16.53
2017-12-16T11:26:48.941Z,13.37
2017-12-16T11:29:17.132Z,14.10
2017-12-16T11:31:44.582Z,15.03
2017-12-16T11:34:12.784Z,13.80
2017-12-16T11:36:40.235Z,14.37
2017-12-16T11:39:07.672Z,14.00
2017-12-16T11:41:35.105Z,12.13
2017-12-16T11:44:02.571Z,13.47
2017-12-16T11:46:30.840Z,14.80
2017-12-16T11:48:58.273Z,13.67
2017-12-16T11:51:25.705Z,13.57
2017-12-16T11:53:53.143Z,14.60
2017-12-16T11:56:20.573Z,16.77
2017-12-16T11:58:48.776Z,14.70
2017-12-16T12:01:16.212Z,14.27
2017-12-16T12:03:44.484Z,13.40
2017-12-16T12:06:12.697Z,16.23
2017-12-16T12:08:40.132Z,15.13
2017-12-16T12:11:07.564Z,13.87
2017-12-16T12:13:34.996Z,13.50
2017-12-16T12:16:02.433Z,11.90
2017-12-16T12:18:29.864Z,12.77
2017-12-16T12:20:57.295Z,15.13
2017-12-16T12:23:24.741Z,11.90
2017-12-16T12:25:52.173Z,13.43
2017-12-16T12:28:19.609Z,12.70
2017-12-16T12:30:47.036Z,12.33
2017-12-16T12:33:14.467Z,12.87
2017-12-16T12:35:41.897Z,12.10
2017-12-16T12:38:09.364Z,11.80
2017-12-16T12:40:36.801Z,12.00
2017-12-16T12:43:06.247Z,10.27
2017-12-16T12:45:33.688Z,9.80
2017-12-16T12:48:01.130Z,10.17
2017-12-16T12:50:28.572Z,10.77
2017-12-16T12:52:55.996Z,9.50
2017-12-16T12:55:23.437Z,8.97
2017-12-16T12:57:52.274Z,9.03
2017-12-16T13:00:19.703Z,9.10
2017-12-16T13:02:47.128Z,9.67
2017-12-16T13:05:14.557Z,8.00
2017-12-16T13:07:42.748Z,7.47
2017-12-16T13:10:10.183Z,8.13
2017-12-16T13:12:37.617Z,7.50
2017-12-16T13:15:05.048Z,8.50
2017-12-16T13:17:33.246Z,8.10
2017-12-16T13:20:00.675Z,9.30
2017-12-16T13:22:28.856Z,8.37
2017-12-16T13:24:57.066Z,7.70
2017-12-16T13:27:24.489Z,7.90
2017-12-16T13:29:51.938Z,8.40
2017-12-16T13:32:20.135Z,8.77
2017-12-16T13:34:47.559Z,9.50
2017-12-16T13:37:14.994Z,7.17
2017-12-16T13:39:42.430Z,7.37
2017-12-16T13:42:09.869Z,9.70
2017-12-16T13:44:38.324Z,7.87
2017-12-16T13:47:06.529Z,7.03
2017-12-16T13:49:33.943Z,6.73
2017-12-16T13:52:06.559Z,7.90
2017-12-16T13:54:33.997Z,6.47
2017-12-16T13:57:05.854Z,7.07
2017-12-16T13:59:34.057Z,8.57
2017-12-16T14:02:01.485Z,6.50
2017-12-16T14:04:29.695Z,6.40
2017-12-16T14:06:57.125Z,7.50
2017-12-16T14:09:24.570Z,6.87
2017-12-16T14:11:58.359Z,9.10
2017-12-16T14:14:25.803Z,6.30
2017-12-16T14:16:53.231Z,6.70
2017-12-16T14:19:20.662Z,7.07
2017-12-16T14:21:48.093Z,6.90
2017-12-16T14:24:15.530Z,7.37
2017-12-16T14:26:43.921Z,7.50
2017-12-16T14:29:11.362Z,7.23
2017-12-16T14:31:44.276Z,8.70
2017-12-16T14:34:12.488Z,7.97
2017-12-16T14:36:39.917Z,8.03
2017-12-16T14:39:08.121Z,7.30
2017-12-16T14:41:35.556Z,6.03
2017-12-16T14:44:02.997Z,5.93
2017-12-16T14:46:34.985Z,6.30
2017-12-16T14:49:02.421Z,6.10
2017-12-16T14:51:30.614Z,6.23
2017-12-16T14:53:58.453Z,5.60
2017-12-16T14:56:26.173Z,5.10
2017-12-16T14:58:53.670Z,5.47
2017-12-16T15:01:21.093Z,5.13
2017-12-16T15:03:48.594Z,6.57
2017-12-16T15:06:18.839Z,5.30
2017-12-16T15:08:46.267Z,5.23
2017-12-16T15:11:13.724Z,5.23
2017-12-16T15:13:41.161Z,4.83
2017-12-16T15:16:08.674Z,5.70
2017-12-16T15:18:36.101Z,4.90
2017-12-16T15:21:03.533Z,5.80
2017-12-16T15:23:30.959Z,6.47
2017-12-16T15:25:58.392Z,5.83
2017-12-16T15:28:25.832Z,5.90
2017-12-16T15:30:54.068Z,5.13
2017-12-16T15:33:21.506Z,6.17
2017-12-16T15:35:49.775Z,5.63
2017-12-16T15:38:17.188Z,6.33
2017-12-16T15:40:44.720Z,4.57
2017-12-16T15:43:12.148Z,4.60
2017-12-16T15:45:39.616Z,3.43
2017-12-16T15:48:07.047Z,4.40
2017-12-16T15:50:34.526Z,4.30
2017-12-16T15:53:01.948Z,4.07
2017-12-16T15:55:30.225Z,4.67
2017-12-16T15:57:58.414Z,3.40
2017-12-16T16:00:25.840Z,3.13
2017-12-16T16:02:54.163Z,2.90
2017-12-16T16:05:21.569Z,2.73
2017-12-16T16:07:49.005Z,2.30
2017-12-16T16:10:16.424Z,2.93
2017-12-16T16:12:44.977Z,2.77
2017-12-16T16:15:13.172Z,2.63
2017-12-16T16:17:40.592Z,2.93
2017-12-16T16:20:08.033Z,2.97
2017-12-16T16:22:35.462Z,2.80
2017-12-16T16:25:02.899Z,2.40
2017-12-16T16:27:30.324Z,2.90
2017-12-16T16:29:57.752Z,2.80
2017-12-16T16:32:25.184Z,2.80
2017-12-16T16:34:52.617Z,2.83
2017-12-16T16:37:21.617Z,3.30
2017-12-16T16:39:49.044Z,3.20
2017-12-16T16:42:16.468Z,3.20
2017-12-16T16:44:43.909Z,3.37
2017-12-16T16:47:11.332Z,3.10
2017-12-16T16:49:39.533Z,4.63
2017-12-16T16:52:06.961Z,4.20
2017-12-16T16:54:35.153Z,4.53
2017-12-16T16:57:06.081Z,4.53
2017-12-16T16:59:34.286Z,4.17
2017-12-16T17:02:01.704Z,4.80
2017-12-16T17:04:29.901Z,4.77
2017-12-16T17:06:57.329Z,5.07
2017-12-16T17:09:25.528Z,4.53
2017-12-16T17:11:52.967Z,5.57
2017-12-16T17:14:20.391Z,4.60
2017-12-16T17:16:49.812Z,4.57
2017-12-16T17:19:17.237Z,6.13
2017-12-16T17:21:44.690Z,7.57
2017-12-16T17:24:12.112Z,7.03
2017-12-16T17:26:39.544Z,7.37
2017-12-16T17:29:06.974Z,6.67
2017-12-16T17:31:34.460Z,6.77
2017-12-16T17:34:01.889Z,5.93
2017-12-16T17:36:29.367Z,5.50
2017-12-16T17:38:57.029Z,6.07
2017-12-16T17:41:24.564Z,6.47
2017-12-16T17:43:52.033Z,6.20
2017-12-16T17:46:19.530Z,7.37
2017-12-16T17:48:47.133Z,5.30
2017-12-16T17:51:14.574Z,5.60
2017-12-16T17:53:42.000Z,7.93
2017-12-16T17:56:10.238Z,5.83
2017-12-16T17:58:37.639Z,6.33
2017-12-16T18:01:05.080Z,7.70
2017-12-16T18:03:32.501Z,7.27
2017-12-16T18:05:59.930Z,7.63
2017-12-16T18:08:27.374Z,7.60
2017-12-16T18:10:54.805Z,8.20
2017-12-16T18:13:24.096Z,8.27
2017-12-16T18:15:51.658Z,7.20
2017-12-16T18:18:19.075Z,8.03
2017-12-16T18:20:46.508Z,9.23
2017-12-16T18:23:13.935Z,9.30
2017-12-16T18:25:42.151Z,8.60
2017-12-16T18:28:09.580Z,8.80
2017-12-16T18:30:37.011Z,9.50
2017-12-16T18:33:04.457Z,9.33
2017-12-16T18:35:31.897Z,8.10
2017-12-16T18:37:59.316Z,8.13
2017-12-16T18:40:26.748Z,9.10
2017-12-16T18:42:54.936Z,9.90
2017-12-16T18:45:23.142Z,8.73
2017-12-16T18:47:50.610Z,8.10
2017-12-16T18:50:18.776Z,8.30
2017-12-16T18:52:51.508Z,10.10
2017-12-16T18:55:18.931Z,8.63
2017-12-16T18:57:46.369Z,9.47
2017-12-16T19:00:13.808Z,9.83
2017-12-16T19:02:41.242Z,10.93
2017-12-16T19:05:09.440Z,10.27
2017-12-16T19:07:36.872Z,11.00
2017-12-16T19:10:05.089Z,11.53
2017-12-16T19:12:32.517Z,11.30
2017-12-16T19:15:00.727Z,11.33
2017-12-16T19:17:28.160Z,11.43
2017-12-16T19:19:55.597Z,8.63
2017-12-16T19:22:23.792Z,10.90
2017-12-16T19:24:51.238Z,10.33
2017-12-16T19:27:19.433Z,9.53
2017-12-16T19:29:46.875Z,10.67
2017-12-16T19:32:14.300Z,10.23
2017-12-16T19:34:41.731Z,10.87
2017-12-16T19:37:09.158Z,8.87
2017-12-16T19:39:36.585Z,9.47
2017-12-16T19:42:04.791Z,9.50
2017-12-16T19:44:32.220Z,9.93
2017-12-16T19:47:00.416Z,9.97
2017-12-16T19:49:27.845Z,8.83
2017-12-16T19:51:56.329Z,9.10
2017-12-16T19:54:25.631Z,10.20
2017-12-16T19:56:53.835Z,10.63
2017-12-16T19:59:21.264Z,9.47
2017-12-16T20:01:49.460Z,11.33
2017-12-16T20:04:16.888Z,9.50
2017-12-16T20:06:45.084Z,9.40
2017-12-16T20:09:12.507Z,9.97
2017-12-16T20:11:39.959Z,9.77
2017-12-16T20:14:07.422Z,10.60
2017-12-16T20:16:34.922Z,11.30
2017-12-16T20:19:02.348Z,10.77
2017-12-16T20:21:30.597Z,8.27
2017-12-16T20:23:58.033Z,9.40
2017-12-16T20:26:25.479Z,9.93
2017-12-16T20:28:52.910Z,9.53
2017-12-16T20:31:21.118Z,8.70
2017-12-16T20:33:49.540Z,8.00
2017-12-16T20:36:16.981Z,8.77
2017-12-16T20:38:44.413Z,8.67
2017-12-16T20:41:11.840Z,7.87
2017-12-16T20:43:39.275Z,9.13
2017-12-16T20:46:07.481Z,9.07
2017-12-16T20:48:34.904Z,7.97
2017-12-16T20:51:03.104Z,7.70
2017-12-16T20:53:31.559Z,6.97
2017-12-16T20:55:59.765Z,6.93
2017-12-16T20:58:27.197Z,7.43
2017-12-16T21:00:55.391Z,6.90
2017-12-16T21:03:22.835Z,9.20
2017-12-16T21:05:51.027Z,7.53
2017-12-16T21:08:18.460Z,7.70
2017-12-16T21:10:46.647Z,7.57
2017-12-16T21:13:14.088Z,6.17
2017-12-16T21:15:42.293Z,8.63
2017-12-16T21:18:09.738Z,7.87
2017-12-16T21:20:37.169Z,6.20
2017-12-16T21:23:04.600Z,6.10
2017-12-16T21:25:32.133Z,5.90
2017-12-16T21:27:59.572Z,6.13
2017-12-16T21:30:27.767Z,7.30
2017-12-16T21:32:55.223Z,7.20
2017-12-16T21:35:22.640Z,7.10
2017-12-16T21:37:50.832Z,5.40
2017-12-16T21:40:23.505Z,6.80
2017-12-16T21:42:50.942Z,6.90
2017-12-16T21:45:24.046Z,6.57
2017-12-16T21:47:52.890Z,5.30
2017-12-16T21:50:20.328Z,6.17
2017-12-16T21:52:47.760Z,5.70
2017-12-16T21:55:15.185Z,6.30
2017-12-16T21:57:42.638Z,6.00
2017-12-16T22:00:10.088Z,5.90
2017-12-16T22:02:37.496Z,6.43
2017-12-16T22:05:04.920Z,5.20
2017-12-16T22:07:33.115Z,6.03
2017-12-16T22:10:00.545Z,5.23
2017-12-16T22:12:28.045Z,5.83
2017-12-16T22:14:55.464Z,6.53
2017-12-16T22:17:22.899Z,5.53
2017-12-16T22:19:50.325Z,4.83
2017-12-16T22:22:17.745Z,5.20
2017-12-16T22:24:45.941Z,5.37
2017-12-16T22:27:13.383Z,5.43
2017-12-16T22:29:40.838Z,5.37
2017-12-16T22:32:09.013Z,6.33
2017-12-16T22:34:37.220Z,5.20
2017-12-16T22:37:04.655Z,5.80
2017-12-16T22:39:32.059Z,5.00
2017-12-16T22:41:59.484Z,5.00
2017-12-16T22:44:26.921Z,4.63
2017-12-16T22:46:54.383Z,5.33
2017-12-16T22:49:21.788Z,4.00
2017-12-16T22:51:49.221Z,5.10
2017-12-16T22:54:16.662Z,5.40
2017-12-16T22:56:44.088Z,4.93
2017-12-16T22:59:11.525Z,4.77
2017-12-16T23:01:38.993Z,4.20
2017-12-16T23:04:06.408Z,4.80
2017-12-16T23:06:33.842Z,4.63
2017-12-16T23:09:01.269Z,4.40
2017-12-16T23:11:28.696Z,5.93
2017-12-16T23:13:56.121Z,4.10
2017-12-16T23:16:24.351Z,4.70
2017-12-16T23:18:51.789Z,4.50
2017-12-16T23:21:19.226Z,4.90
2017-12-16T23:23:46.658Z,5.10
2017-12-16T23:26:14.081Z,4.13
2017-12-16T23:28:41.515Z,4.00
2017-12-16T23:31:08.942Z,3.27
2017-12-16T23:33:36.360Z,4.20
2017-12-16T23:36:04.581Z,3.47
2017-12-16T23:38:32.005Z,3.60
2017-12-16T23:41:00.183Z,3.73
2017-12-16T23:43:27.612Z,3.57
2017-12-16T23:45:55.040Z,3.20
2017-12-16T23:48:22.474Z,4.50
2017-12-16T23:50:49.892Z,3.70
2017-12-16T23:53:18.140Z,4.50
2017-12-16T23:55:45.563Z,4.80
2017-12-16T23:58:12.993Z,4.10
